sensor_id;sensor_type;location;lat;lon;timestamp;pressure;altitude;pressure_sealevel;temperature;humidity
77288;BME280;66345;42.694;23.346;2023-05-23T00:00:32;95389.38;;;11.53;88.49
77288;BME280;66345;42.694;23.346;2023-05-23T00:02:58;95371.78;;;11.52;88.79
77288;BME280;66345;42.694;23.346;2023-05-23T00:05:25;95375.03;;;11.47;88.96
77288;BME280;66345;42.694;23.346;2023-05-23T00:07:51;95376.16;;;11.31;88.64
77288;BME280;66345;42.694;23.346;2023-05-23T00:10:17;95382.56;;;11.44;88.44
77288;BME280;66345;42.694;23.346;2023-05-23T00:12:42;95379.59;;;11.60;88.18
77288;BME280;66345;42.694;23.346;2023-05-23T00:15:09;95383.09;;;11.67;87.47
77288;BME280;66345;42.694;23.346;2023-05-23T00:17:34;95376.31;;;11.58;87.58
77288;BME280;66345;42.694;23.346;2023-05-23T00:20:07;95382.81;;;11.49;87.85
77288;BME280;66345;42.694;23.346;2023-05-23T00:22:37;95375.84;;;11.48;87.72
77288;BME280;66345;42.694;23.346;2023-05-23T00:25:08;95372.53;;;11.39;88.13
77288;BME280;66345;42.694;23.346;2023-05-23T00:27:34;95378.66;;;11.39;88.06
77288;BME280;66345;42.694;23.346;2023-05-23T00:30:00;95386.81;;;11.38;88.15
77288;BME280;66345;42.694;23.346;2023-05-23T00:32:25;95380.16;;;11.49;87.88
77288;BME280;66345;42.694;23.346;2023-05-23T00:34:50;95377.53;;;11.62;87.55
77288;BME280;66345;42.694;23.346;2023-05-23T00:37:18;95374.38;;;11.80;86.60
77288;BME280;66345;42.694;23.346;2023-05-23T00:39:44;95385.50;;;11.62;86.60
77288;BME280;66345;42.694;23.346;2023-05-23T00:42:09;95377.16;;;11.65;86.87
77288;BME280;66345;42.694;23.346;2023-05-23T00:44:35;95385.09;;;11.58;86.94
77288;BME280;66345;42.694;23.346;2023-05-23T00:47:01;95375.84;;;11.48;87.38
77288;BME280;66345;42.694;23.346;2023-05-23T00:49:26;95367.66;;;11.43;87.70
77288;BME280;66345;42.694;23.346;2023-05-23T00:51:52;95373.22;;;11.54;88.21
77288;BME280;66345;42.694;23.346;2023-05-23T00:54:25;95380.16;;;11.49;87.49
77288;BME280;66345;42.694;23.346;2023-05-23T00:56:52;95379.75;;;11.52;86.80
77288;BME280;66345;42.694;23.346;2023-05-23T00:59:18;95368.31;;;11.51;86.76
77288;BME280;66345;42.694;23.346;2023-05-23T01:01:46;95384.50;;;11.63;86.82
77288;BME280;66345;42.694;23.346;2023-05-23T01:04:12;95379.38;;;11.61;86.64
77288;BME280;66345;42.694;23.346;2023-05-23T01:06:40;95378.19;;;11.64;87.17
77288;BME280;66345;42.694;23.346;2023-05-23T01:09:12;95388.66;;;11.72;86.93
77288;BME280;66345;42.694;23.346;2023-05-23T01:14:54;95379.25;;;11.76;87.54
77288;BME280;66345;42.694;23.346;2023-05-23T01:17:38;95379.66;;;11.73;87.84
77288;BME280;66345;42.694;23.346;2023-05-23T01:20:11;95378.19;;;11.71;87.21
77288;BME280;66345;42.694;23.346;2023-05-23T01:28:36;95382.34;;;11.38;87.61
77288;BME280;66345;42.694;23.346;2023-05-23T01:31:03;95377.88;;;11.46;87.91
77288;BME280;66345;42.694;23.346;2023-05-23T01:33:31;95378.50;;;11.48;87.39
77288;BME280;66345;42.694;23.346;2023-05-23T01:35:57;95383.19;;;11.46;87.46
77288;BME280;66345;42.694;23.346;2023-05-23T01:38:25;95377.47;;;11.42;88.16
77288;BME280;66345;42.694;23.346;2023-05-23T01:40:51;95371.16;;;11.50;87.88
77288;BME280;66345;42.694;23.346;2023-05-23T01:43:16;95374.16;;;11.40;87.69
77288;BME280;66345;42.694;23.346;2023-05-23T01:45:42;95372.44;;;11.19;87.87
77288;BME280;66345;42.694;23.346;2023-05-23T01:48:08;95362.13;;;11.09;89.22
77288;BME280;66345;42.694;23.346;2023-05-23T01:50:36;95360.94;;;11.12;88.87
77288;BME280;66345;42.694;23.346;2023-05-23T01:53:02;95362.34;;;11.08;89.12
77288;BME280;66345;42.694;23.346;2023-05-23T01:55:28;95369.94;;;11.11;88.64
77288;BME280;66345;42.694;23.346;2023-05-23T01:57:56;95359.88;;;11.06;88.62
77288;BME280;66345;42.694;23.346;2023-05-23T02:00:23;95362.63;;;11.20;89.09
77288;BME280;66345;42.694;23.346;2023-05-23T02:02:49;95357.22;;;11.06;87.85
77288;BME280;66345;42.694;23.346;2023-05-23T02:05:15;95369.06;;;11.04;88.42
77288;BME280;66345;42.694;23.346;2023-05-23T02:07:40;95373.78;;;11.08;88.51
77288;BME280;66345;42.694;23.346;2023-05-23T02:10:09;95360.13;;;11.11;88.12
77288;BME280;66345;42.694;23.346;2023-05-23T02:12:34;95364.97;;;11.36;87.83
77288;BME280;66345;42.694;23.346;2023-05-23T02:15:00;95378.41;;;11.28;87.20
77288;BME280;66345;42.694;23.346;2023-05-23T02:17:25;95365.25;;;11.13;88.04
77288;BME280;66345;42.694;23.346;2023-05-23T02:19:51;95369.06;;;11.04;88.41
77288;BME280;66345;42.694;23.346;2023-05-23T02:22:22;95373.09;;;11.00;88.03
77288;BME280;66345;42.694;23.346;2023-05-23T02:24:48;95365.72;;;10.95;88.15
77288;BME280;66345;42.694;23.346;2023-05-23T02:27:14;95367.38;;;10.96;88.04
77288;BME280;66345;42.694;23.346;2023-05-23T02:29:39;95360.66;;;11.00;88.48
77288;BME280;66345;42.694;23.346;2023-05-23T02:32:05;95359.22;;;10.98;88.22
77288;BME280;66345;42.694;23.346;2023-05-23T02:34:30;95357.19;;;11.00;88.29
77288;BME280;66345;42.694;23.346;2023-05-23T02:36:56;95364.22;;;11.14;87.79
77288;BME280;66345;42.694;23.346;2023-05-23T02:39:21;95360.84;;;11.27;87.55
77288;BME280;66345;42.694;23.346;2023-05-23T02:41:47;95356.75;;;11.31;87.19
77288;BME280;66345;42.694;23.346;2023-05-23T02:44:12;95350.13;;;11.55;86.78
77288;BME280;66345;42.694;23.346;2023-05-23T02:46:39;95354.25;;;11.64;86.34
77288;BME280;66345;42.694;23.346;2023-05-23T02:49:05;95360.41;;;11.71;86.66
77288;BME280;66345;42.694;23.346;2023-05-23T02:51:30;95358.41;;;11.80;86.37
77288;BME280;66345;42.694;23.346;2023-05-23T02:53:56;95363.16;;;11.91;85.34
77288;BME280;66345;42.694;23.346;2023-05-23T02:56:22;95357.88;;;11.98;85.56
77288;BME280;66345;42.694;23.346;2023-05-23T02:58:47;95357.47;;;12.01;85.07
77288;BME280;66345;42.694;23.346;2023-05-23T03:01:13;95357.88;;;11.98;85.71
77288;BME280;66345;42.694;23.346;2023-05-23T03:03:38;95354.81;;;12.01;84.62
77288;BME280;66345;42.694;23.346;2023-05-23T03:06:06;95355.44;;;12.03;83.63
77288;BME280;66345;42.694;23.346;2023-05-23T03:08:32;95359.59;;;11.71;84.03
77288;BME280;66345;42.694;23.346;2023-05-23T03:10:59;95357.75;;;11.71;84.56
77288;BME280;66345;42.694;23.346;2023-05-23T03:13:25;95353.06;;;11.73;84.26
77288;BME280;66345;42.694;23.346;2023-05-23T03:15:50;95356.19;;;11.83;83.12
77288;BME280;66345;42.694;23.346;2023-05-23T03:18:15;95354.28;;;11.77;84.38
77288;BME280;66345;42.694;23.346;2023-05-23T03:20:42;95363.16;;;11.91;83.88
77288;BME280;66345;42.694;23.346;2023-05-23T03:23:08;95364.41;;;11.95;83.61
77288;BME280;66345;42.694;23.346;2023-05-23T03:25:33;95360.75;;;12.03;83.40
77288;BME280;66345;42.694;23.346;2023-05-23T03:27:59;95364.03;;;12.05;82.93
77288;BME280;66345;42.694;23.346;2023-05-23T03:30:24;95364.66;;;12.07;83.04
77288;BME280;66345;42.694;23.346;2023-05-23T03:32:50;95370.22;;;12.18;83.05
77288;BME280;66345;42.694;23.346;2023-05-23T03:35:15;95369.41;;;12.18;82.59
77288;BME280;66345;42.694;23.346;2023-05-23T03:37:42;95384.31;;;12.12;83.49
77288;BME280;66345;42.694;23.346;2023-05-23T03:40:07;95380.19;;;11.97;83.33
77288;BME280;66345;42.694;23.346;2023-05-23T03:42:35;95383.75;;;11.76;84.46
77288;BME280;66345;42.694;23.346;2023-05-23T03:45:00;95383.44;;;11.99;84.65
77288;BME280;66345;42.694;23.346;2023-05-23T03:47:26;95388.09;;;11.83;84.92
77288;BME280;66345;42.694;23.346;2023-05-23T03:49:51;95380.84;;;12.12;83.56
77288;BME280;66345;42.694;23.346;2023-05-23T03:52:17;95388.44;;;12.28;82.04
77288;BME280;66345;42.694;23.346;2023-05-23T03:54:42;95392.38;;;11.84;84.19
77288;BME280;66345;42.694;23.346;2023-05-23T03:57:07;95394.94;;;12.06;84.61
77288;BME280;66345;42.694;23.346;2023-05-23T03:59:33;95389.41;;;12.14;83.10
77288;BME280;66345;42.694;23.346;2023-05-23T04:02:00;95395.38;;;12.09;82.87
77288;BME280;66345;42.694;23.346;2023-05-23T04:04:26;95386.28;;;11.90;84.05
77288;BME280;66345;42.694;23.346;2023-05-23T04:06:53;95385.06;;;11.86;84.61
77288;BME280;66345;42.694;23.346;2023-05-23T04:09:19;95386.84;;;11.79;85.15
77288;BME280;66345;42.694;23.346;2023-05-23T04:11:44;95375.75;;;11.76;86.21
77288;BME280;66345;42.694;23.346;2023-05-23T04:14:12;95379.00;;;12.12;85.05
77288;BME280;66345;42.694;23.346;2023-05-23T04:16:38;95384.53;;;12.31;84.38
77288;BME280;66345;42.694;23.346;2023-05-23T04:19:06;95376.56;;;12.31;84.13
77288;BME280;66345;42.694;23.346;2023-05-23T04:21:32;95382.50;;;12.26;84.80
77288;BME280;66345;42.694;23.346;2023-05-23T04:23:57;95384.16;;;12.54;84.79
77288;BME280;66345;42.694;23.346;2023-05-23T04:26:23;95395.41;;;12.36;84.51
77288;BME280;66345;42.694;23.346;2023-05-23T04:28:48;95396.44;;;12.35;84.79
77288;BME280;66345;42.694;23.346;2023-05-23T04:31:14;95393.97;;;12.33;84.49
77288;BME280;66345;42.694;23.346;2023-05-23T04:33:39;95393.97;;;12.46;83.91
77288;BME280;66345;42.694;23.346;2023-05-23T04:36:06;95390.91;;;12.43;84.13
77288;BME280;66345;42.694;23.346;2023-05-23T04:38:34;95390.31;;;12.47;84.09
77288;BME280;66345;42.694;23.346;2023-05-23T04:40:59;95394.84;;;12.47;83.39
77288;BME280;66345;42.694;23.346;2023-05-23T04:43:25;95401.75;;;12.28;82.36
77288;BME280;66345;42.694;23.346;2023-05-23T04:45:53;95403.81;;;12.39;83.69
77288;BME280;66345;42.694;23.346;2023-05-23T04:48:19;95411.81;;;12.39;82.06
77288;BME280;66345;42.694;23.346;2023-05-23T04:50:46;95413.19;;;12.29;82.46
77288;BME280;66345;42.694;23.346;2023-05-23T04:53:13;95406.25;;;12.28;81.98
77288;BME280;66345;42.694;23.346;2023-05-23T04:55:38;95401.09;;;12.19;83.15
77288;BME280;66345;42.694;23.346;2023-05-23T04:58:03;95401.94;;;12.20;82.73
77288;BME280;66345;42.694;23.346;2023-05-23T05:00:29;95409.00;;;11.86;82.88
77288;BME280;66345;42.694;23.346;2023-05-23T05:02:55;95409.00;;;12.00;83.34
77288;BME280;66345;42.694;23.346;2023-05-23T05:05:21;95413.78;;;12.17;82.67
77288;BME280;66345;42.694;23.346;2023-05-23T05:07:47;95412.97;;;12.17;82.19
77288;BME280;66345;42.694;23.346;2023-05-23T05:10:13;95421.78;;;12.24;82.61
77288;BME280;66345;42.694;23.346;2023-05-23T05:12:44;95415.47;;;12.38;81.89
77288;BME280;66345;42.694;23.346;2023-05-23T05:15:16;95424.97;;;12.00;83.76
77288;BME280;66345;42.694;23.346;2023-05-23T05:17:43;95421.88;;;11.89;84.79
77288;BME280;66345;42.694;23.346;2023-05-23T05:20:09;95419.66;;;12.00;85.14
77288;BME280;66345;42.694;23.346;2023-05-23T05:22:38;95426.50;;;12.29;83.47
77288;BME280;66345;42.694;23.346;2023-05-23T05:25:08;95424.19;;;12.06;83.88
77288;BME280;66345;42.694;23.346;2023-05-23T05:27:34;95431.94;;;11.94;84.59
77288;BME280;66345;42.694;23.346;2023-05-23T05:30:06;95418.63;;;12.01;85.24
77288;BME280;66345;42.694;23.346;2023-05-23T05:32:31;95425.53;;;12.49;83.21
77288;BME280;66345;42.694;23.346;2023-05-23T05:34:59;95418.78;;;12.54;83.20
77288;BME280;66345;42.694;23.346;2023-05-23T05:37:24;95417.38;;;12.77;81.90
77288;BME280;66345;42.694;23.346;2023-05-23T05:39:50;95413.69;;;12.65;82.27
77288;BME280;66345;42.694;23.346;2023-05-23T05:42:15;95422.91;;;13.09;81.20
77288;BME280;66345;42.694;23.346;2023-05-23T05:44:41;95424.38;;;13.25;79.44
77288;BME280;66345;42.694;23.346;2023-05-23T05:47:06;95427.03;;;13.38;79.81
77288;BME280;66345;42.694;23.346;2023-05-23T05:49:31;95427.00;;;13.18;79.47
77288;BME280;66345;42.694;23.346;2023-05-23T05:51:57;95427.81;;;13.12;80.09
77288;BME280;66345;42.694;23.346;2023-05-23T05:54:22;95424.34;;;12.98;79.88
77288;BME280;66345;42.694;23.346;2023-05-23T05:56:48;95429.69;;;13.25;79.65
77288;BME280;66345;42.694;23.346;2023-05-23T05:59:14;95421.00;;;13.76;77.48
77288;BME280;66345;42.694;23.346;2023-05-23T06:01:39;95430.63;;;14.28;75.46
77288;BME280;66345;42.694;23.346;2023-05-23T06:04:05;95421.56;;;13.84;76.65
77288;BME280;66345;42.694;23.346;2023-05-23T06:06:30;95429.84;;;14.21;76.58
77288;BME280;66345;42.694;23.346;2023-05-23T06:08:56;95421.91;;;14.53;74.61
77288;BME280;66345;42.694;23.346;2023-05-23T06:11:21;95432.44;;;14.73;73.70
77288;BME280;66345;42.694;23.346;2023-05-23T06:13:47;95427.50;;;14.76;73.53
77288;BME280;66345;42.694;23.346;2023-05-23T06:16:12;95422.94;;;15.08;72.38
77288;BME280;66345;42.694;23.346;2023-05-23T06:18:39;95432.75;;;14.89;72.53
77288;BME280;66345;42.694;23.346;2023-05-23T06:21:05;95435.47;;;14.83;73.13
77288;BME280;66345;42.694;23.346;2023-05-23T06:23:30;95434.50;;;15.02;72.34
77288;BME280;66345;42.694;23.346;2023-05-23T06:25:57;95433.06;;;15.24;71.90
77288;BME280;66345;42.694;23.346;2023-05-23T06:28:22;95426.09;;;14.98;71.36
77288;BME280;66345;42.694;23.346;2023-05-23T06:30:49;95435.91;;;15.30;71.95
77288;BME280;66345;42.694;23.346;2023-05-23T06:33:15;95432.13;;;15.62;69.85
77288;BME280;66345;42.694;23.346;2023-05-23T06:35:41;95423.81;;;15.70;68.82
77288;BME280;66345;42.694;23.346;2023-05-23T06:38:07;95424.06;;;14.94;71.76
77288;BME280;66345;42.694;23.346;2023-05-23T06:40:32;95423.75;;;15.77;70.35
77288;BME280;66345;42.694;23.346;2023-05-23T06:42:58;95423.00;;;16.55;66.88
77288;BME280;66345;42.694;23.346;2023-05-23T06:45:24;95430.56;;;16.76;66.12
77288;BME280;66345;42.694;23.346;2023-05-23T06:47:50;95419.09;;;17.23;65.00
77288;BME280;66345;42.694;23.346;2023-05-23T06:50:16;95424.63;;;16.07;67.52
77288;BME280;66345;42.694;23.346;2023-05-23T06:52:44;95416.47;;;16.51;66.71
77288;BME280;66345;42.694;23.346;2023-05-23T06:55:10;95411.16;;;17.04;64.62
77288;BME280;66345;42.694;23.346;2023-05-23T06:57:38;95408.16;;;17.83;62.36
77288;BME280;66345;42.694;23.346;2023-05-23T07:00:04;95413.97;;;18.15;61.77
77288;BME280;66345;42.694;23.346;2023-05-23T07:02:30;95409.38;;;19.34;57.42
77288;BME280;66345;42.694;23.346;2023-05-23T07:04:55;95399.25;;;21.91;50.46
77288;BME280;66345;42.694;23.346;2023-05-23T07:07:21;95410.72;;;22.76;47.58
77288;BME280;66345;42.694;23.346;2023-05-23T07:09:46;95395.19;;;24.40;43.95
77288;BME280;66345;42.694;23.346;2023-05-23T07:12:11;95401.97;;;24.91;42.57
77288;BME280;66345;42.694;23.346;2023-05-23T07:14:37;95401.78;;;25.90;39.53
77288;BME280;66345;42.694;23.346;2023-05-23T07:17:02;95389.84;;;26.15;39.35
77288;BME280;66345;42.694;23.346;2023-05-23T07:19:28;95391.03;;;27.14;37.56
77288;BME280;66345;42.694;23.346;2023-05-23T07:21:53;95382.25;;;28.56;34.92
77288;BME280;66345;42.694;23.346;2023-05-23T07:24:18;95377.50;;;29.11;33.24
77288;BME280;66345;42.694;23.346;2023-05-23T07:26:44;95384.22;;;27.81;34.84
77288;BME280;66345;42.694;23.346;2023-05-23T07:29:09;95384.91;;;26.17;36.96
77288;BME280;66345;42.694;23.346;2023-05-23T07:31:35;95381.22;;;26.94;36.71
77288;BME280;66345;42.694;23.346;2023-05-23T07:34:00;95379.00;;;27.99;35.32
77288;BME280;66345;42.694;23.346;2023-05-23T07:36:26;95378.38;;;26.42;37.73
77288;BME280;66345;42.694;23.346;2023-05-23T07:38:51;95362.56;;;27.71;35.10
77288;BME280;66345;42.694;23.346;2023-05-23T07:41:17;95363.13;;;29.95;31.31
77288;BME280;66345;42.694;23.346;2023-05-23T07:43:42;95368.91;;;30.25;30.68
77288;BME280;66345;42.694;23.346;2023-05-23T07:46:08;95375.53;;;29.48;31.51
77288;BME280;66345;42.694;23.346;2023-05-23T07:48:33;95358.53;;;29.82;31.82
77288;BME280;66345;42.694;23.346;2023-05-23T07:50:59;95373.53;;;26.58;36.93
77288;BME280;66345;42.694;23.346;2023-05-23T07:53:25;95373.78;;;25.32;39.51
77288;BME280;66345;42.694;23.346;2023-05-23T07:55:50;95371.47;;;26.02;38.49
77288;BME280;66345;42.694;23.346;2023-05-23T07:58:16;95371.72;;;27.29;35.84
77288;BME280;66345;42.694;23.346;2023-05-23T08:00:41;95367.66;;;26.51;38.13
77288;BME280;66345;42.694;23.346;2023-05-23T08:03:08;95359.59;;;26.83;37.76
77288;BME280;66345;42.694;23.346;2023-05-23T08:05:34;95365.69;;;25.22;40.74
77288;BME280;66345;42.694;23.346;2023-05-23T08:07:59;95364.19;;;26.45;38.47
77288;BME280;66345;42.694;23.346;2023-05-23T08:10:25;95352.44;;;28.45;34.23
77288;BME280;66345;42.694;23.346;2023-05-23T08:12:53;95353.84;;;28.57;35.15
77288;BME280;66345;42.694;23.346;2023-05-23T08:15:18;95362.41;;;27.95;35.47
77288;BME280;66345;42.694;23.346;2023-05-23T08:17:44;95347.69;;;29.46;32.39
77288;BME280;66345;42.694;23.346;2023-05-23T08:20:10;95357.69;;;30.44;31.32
77288;BME280;66345;42.694;23.346;2023-05-23T08:22:36;95361.88;;;31.15;30.22
77288;BME280;66345;42.694;23.346;2023-05-23T08:25:04;95359.31;;;31.36;29.64
77288;BME280;66345;42.694;23.346;2023-05-23T08:27:29;95352.63;;;31.89;29.02
77288;BME280;66345;42.694;23.346;2023-05-23T08:29:55;95349.91;;;30.85;30.13
77288;BME280;66345;42.694;23.346;2023-05-23T08:32:20;95348.72;;;31.73;28.94
77288;BME280;66345;42.694;23.346;2023-05-23T08:34:46;95350.56;;;31.34;28.99
77288;BME280;66345;42.694;23.346;2023-05-23T08:37:11;95338.63;;;30.70;30.47
77288;BME280;66345;42.694;23.346;2023-05-23T08:39:37;95341.91;;;31.96;28.72
77288;BME280;66345;42.694;23.346;2023-05-23T08:42:02;95347.66;;;31.13;29.22
77288;BME280;66345;42.694;23.346;2023-05-23T08:44:30;95336.78;;;32.24;28.56
77288;BME280;66345;42.694;23.346;2023-05-23T08:46:57;95343.97;;;31.27;29.11
77288;BME280;66345;42.694;23.346;2023-05-23T08:49:26;95338.63;;;30.21;31.78
77288;BME280;66345;42.694;23.346;2023-05-23T08:51:55;95333.13;;;30.13;31.92
77288;BME280;66345;42.694;23.346;2023-05-23T08:54:23;95333.13;;;31.56;29.04
77288;BME280;66345;42.694;23.346;2023-05-23T08:56:48;95324.16;;;31.30;29.37
77288;BME280;66345;42.694;23.346;2023-05-23T08:59:16;95331.81;;;33.48;26.20
77288;BME280;66345;42.694;23.346;2023-05-23T09:01:43;95326.75;;;29.41;31.70
77288;BME280;66345;42.694;23.346;2023-05-23T09:04:11;95327.41;;;28.66;33.47
77288;BME280;66345;42.694;23.346;2023-05-23T09:06:36;95320.56;;;30.69;30.28
77288;BME280;66345;42.694;23.346;2023-05-23T09:09:03;95321.53;;;30.73;29.14
77288;BME280;66345;42.694;23.346;2023-05-23T09:11:30;95320.84;;;29.48;30.93
77288;BME280;66345;42.694;23.346;2023-05-23T09:13:58;95325.72;;;31.48;28.02
77288;BME280;66345;42.694;23.346;2023-05-23T09:16:31;95327.00;;;31.42;28.64
77288;BME280;66345;42.694;23.346;2023-05-23T09:18:57;95318.16;;;29.79;31.22
77288;BME280;66345;42.694;23.346;2023-05-23T09:21:23;95320.97;;;30.05;30.75
77288;BME280;66345;42.694;23.346;2023-05-23T09:23:51;95316.38;;;30.14;30.73
77288;BME280;66345;42.694;23.346;2023-05-23T09:26:16;95300.56;;;31.46;28.87
77288;BME280;66345;42.694;23.346;2023-05-23T09:28:42;95300.28;;;34.15;25.10
77288;BME280;66345;42.694;23.346;2023-05-23T09:31:08;95315.94;;;31.94;22.47
77288;BME280;66345;42.694;23.346;2023-05-23T09:33:48;95292.69;;;33.43;21.87
77288;BME280;66345;42.694;23.346;2023-05-23T09:36:17;95302.06;;;32.58;22.90
77288;BME280;66345;42.694;23.346;2023-05-23T09:38:44;95310.25;;;31.00;25.45
77288;BME280;66345;42.694;23.346;2023-05-23T09:41:10;95299.88;;;31.49;23.52
77288;BME280;66345;42.694;23.346;2023-05-23T09:43:54;95303.00;;;30.96;26.14
77288;BME280;66345;42.694;23.346;2023-05-23T09:46:21;95299.13;;;30.14;29.17
77288;BME280;66345;42.694;23.346;2023-05-23T09:48:47;95289.81;;;32.17;25.42
77288;BME280;66345;42.694;23.346;2023-05-23T09:51:13;95288.59;;;30.55;26.29
77288;BME280;66345;42.694;23.346;2023-05-23T09:53:39;95284.88;;;28.87;27.79
77288;BME280;66345;42.694;23.346;2023-05-23T09:56:05;95285.22;;;30.58;26.07
77288;BME280;66345;42.694;23.346;2023-05-23T09:58:38;95266.72;;;33.89;21.77
77288;BME280;66345;42.694;23.346;2023-05-23T10:01:08;95272.13;;;31.59;25.30
77288;BME280;66345;42.694;23.346;2023-05-23T10:03:51;95273.50;;;32.50;23.89
77288;BME280;66345;42.694;23.346;2023-05-23T10:06:36;95279.16;;;30.13;25.08
77288;BME280;66345;42.694;23.346;2023-05-23T10:09:16;95280.31;;;29.19;26.48
77288;BME280;66345;42.694;23.346;2023-05-23T10:14:28;95281.22;;;30.82;23.68
77288;BME280;66345;42.694;23.346;2023-05-23T10:17:17;95269.09;;;31.99;23.64
77288;BME280;66345;42.694;23.346;2023-05-23T10:19:52;95278.88;;;28.63;26.76
77288;BME280;66345;42.694;23.346;2023-05-23T10:22:23;95270.56;;;26.98;29.15
77288;BME280;66345;42.694;23.346;2023-05-23T10:24:49;95260.78;;;27.89;27.72
77288;BME280;66345;42.694;23.346;2023-05-23T10:27:16;95257.13;;;27.80;26.19
77288;BME280;66345;42.694;23.346;2023-05-23T10:29:43;95270.56;;;26.04;29.38
77288;BME280;66345;42.694;23.346;2023-05-23T10:32:10;95254.56;;;27.43;26.54
77288;BME280;66345;42.694;23.346;2023-05-23T10:34:55;95269.53;;;25.76;28.97
77288;BME280;66345;42.694;23.346;2023-05-23T10:37:54;95262.91;;;25.34;29.93
77288;BME280;66345;42.694;23.346;2023-05-23T10:40:32;95264.31;;;24.97;30.66
77288;BME280;66345;42.694;23.346;2023-05-23T10:43:12;95256.31;;;23.88;33.25
77288;BME280;66345;42.694;23.346;2023-05-23T10:45:41;95256.75;;;23.25;33.96
77288;BME280;66345;42.694;23.346;2023-05-23T10:51:09;95263.78;;;22.65;34.32
77288;BME280;66345;42.694;23.346;2023-05-23T10:53:37;95258.63;;;22.43;34.40
77288;BME280;66345;42.694;23.346;2023-05-23T10:56:08;95249.72;;;22.33;34.92
77288;BME280;66345;42.694;23.346;2023-05-23T10:58:40;95243.25;;;22.80;34.83
77288;BME280;66345;42.694;23.346;2023-05-23T11:01:08;95239.13;;;23.33;34.39
77288;BME280;66345;42.694;23.346;2023-05-23T11:09:25;95228.19;;;23.74;32.96
77288;BME280;66345;42.694;23.346;2023-05-23T11:12:00;95230.38;;;23.57;32.29
77288;BME280;66345;42.694;23.346;2023-05-23T11:14:57;95240.53;;;22.85;32.63
77288;BME280;66345;42.694;23.346;2023-05-23T11:17:30;95228.38;;;22.92;33.12
77288;BME280;66345;42.694;23.346;2023-05-23T11:20:02;95241.34;;;22.65;34.43
77288;BME280;66345;42.694;23.346;2023-05-23T11:22:30;95228.34;;;22.41;34.87
77288;BME280;66345;42.694;23.346;2023-05-23T11:24:59;95233.22;;;22.65;35.26
77288;BME280;66345;42.694;23.346;2023-05-23T11:27:25;95224.06;;;22.86;34.17
77288;BME280;66345;42.694;23.346;2023-05-23T11:32:34;95212.78;;;23.54;32.72
77288;BME280;66345;42.694;23.346;2023-05-23T11:35:01;95215.25;;;23.50;32.89
77288;BME280;66345;42.694;23.346;2023-05-23T11:37:29;95212.38;;;23.11;33.06
77288;BME280;66345;42.694;23.346;2023-05-23T11:39:54;95208.88;;;22.95;33.50
77288;BME280;66345;42.694;23.346;2023-05-23T11:42:21;95209.97;;;23.00;33.39
77288;BME280;66345;42.694;23.346;2023-05-23T11:44:50;95209.94;;;23.15;33.57
77288;BME280;66345;42.694;23.346;2023-05-23T11:47:17;95206.06;;;23.41;34.10
77288;BME280;66345;42.694;23.346;2023-05-23T11:49:46;95192.31;;;23.28;32.96
77288;BME280;66345;42.694;23.346;2023-05-23T11:52:13;95204.47;;;23.35;34.01
77288;BME280;66345;42.694;23.346;2023-05-23T11:54:40;95211.34;;;22.87;34.33
77288;BME280;66345;42.694;23.346;2023-05-23T11:57:08;95201.53;;;23.16;35.29
77288;BME280;66345;42.694;23.346;2023-05-23T11:59:34;95192.75;;;23.60;34.29
77288;BME280;66345;42.694;23.346;2023-05-23T12:02:01;95191.38;;;23.63;33.07
77288;BME280;66345;42.694;23.346;2023-05-23T12:04:27;95194.06;;;23.68;33.29
77288;BME280;66345;42.694;23.346;2023-05-23T12:06:53;95183.94;;;23.89;33.67
77288;BME280;66345;42.694;23.346;2023-05-23T12:09:19;95188.38;;;24.19;32.83
77288;BME280;66345;42.694;23.346;2023-05-23T12:11:44;95185.78;;;23.98;31.10
77288;BME280;66345;42.694;23.346;2023-05-23T12:14:16;95179.34;;;23.89;32.13
77288;BME280;66345;42.694;23.346;2023-05-23T12:16:43;95171.81;;;23.71;31.50
77288;BME280;66345;42.694;23.346;2023-05-23T12:19:12;95171.66;;;24.01;31.28
77288;BME280;66345;42.694;23.346;2023-05-23T12:21:46;95168.28;;;24.20;30.94
77288;BME280;66345;42.694;23.346;2023-05-23T12:24:14;95164.41;;;23.87;32.24
77288;BME280;66345;42.694;23.346;2023-05-23T12:26:53;95164.03;;;23.54;33.63
77288;BME280;66345;42.694;23.346;2023-05-23T12:29:33;95164.78;;;23.00;34.12
77288;BME280;66345;42.694;23.346;2023-05-23T12:32:00;95163.41;;;23.08;34.01
77288;BME280;66345;42.694;23.346;2023-05-23T12:34:26;95159.91;;;22.92;33.86
77288;BME280;66345;42.694;23.346;2023-05-23T12:37:00;95161.16;;;23.25;33.42
77288;BME280;66345;42.694;23.346;2023-05-23T12:39:29;95158.38;;;23.50;33.11
77288;BME280;66345;42.694;23.346;2023-05-23T12:42:15;95150.34;;;23.25;31.92
77288;BME280;66345;42.694;23.346;2023-05-23T12:44:41;95151.19;;;23.10;30.87
77288;BME280;66345;42.694;23.346;2023-05-23T12:47:08;95153.94;;;23.00;29.63
77288;BME280;66345;42.694;23.346;2023-05-23T12:49:34;95151.13;;;23.31;29.87
77288;BME280;66345;42.694;23.346;2023-05-23T12:52:00;95143.59;;;23.17;29.83
77288;BME280;66345;42.694;23.346;2023-05-23T12:54:25;95139.78;;;23.18;29.79
77288;BME280;66345;42.694;23.346;2023-05-23T12:56:55;95144.63;;;23.26;29.99
77288;BME280;66345;42.694;23.346;2023-05-23T12:59:20;95144.22;;;22.94;30.37
77288;BME280;66345;42.694;23.346;2023-05-23T13:01:46;95132.81;;;22.97;31.74
77288;BME280;66345;42.694;23.346;2023-05-23T13:04:11;95136.38;;;22.97;30.40
77288;BME280;66345;42.694;23.346;2023-05-23T13:06:37;95127.06;;;23.19;29.41
77288;BME280;66345;42.694;23.346;2023-05-23T13:09:02;95127.28;;;23.38;28.31
77288;BME280;66345;42.694;23.346;2023-05-23T13:11:28;95128.44;;;23.21;27.85
77288;BME280;66345;42.694;23.346;2023-05-23T13:13:55;95125.22;;;23.04;30.04